createdAt,value
2018-08-24T00:00:23.832Z,23.00
2018-08-24T00:02:51.735Z,23.00
2018-08-24T00:05:20.037Z,23.00
2018-08-24T00:07:47.980Z,23.00
2018-08-24T00:10:15.914Z,22.90
2018-08-24T00:12:43.810Z,22.90
2018-08-24T00:15:11.732Z,23.00
2018-08-24T00:17:44.834Z,23.00
2018-08-24T00:20:12.768Z,22.90
2018-08-24T00:22:46.339Z,22.90
2018-08-24T00:25:14.968Z,22.80
2018-08-24T00:27:42.932Z,22.80
2018-08-24T00:30:12.193Z,22.90
2018-08-24T00:32:40.602Z,22.90
2018-08-24T00:35:08.556Z,22.90
2018-08-24T00:37:36.451Z,23.00
2018-08-24T00:40:04.475Z,23.00
2018-08-24T00:42:32.870Z,23.00
2018-08-24T00:45:00.818Z,23.00
2018-08-24T00:47:28.661Z,22.90
2018-08-24T00:49:57.048Z,22.90
2018-08-24T00:52:24.937Z,23.00
2018-08-24T00:54:53.523Z,23.00
2018-08-24T00:57:21.465Z,23.00
2018-08-24T00:59:49.598Z,23.00
2018-08-24T01:02:18.177Z,23.00
2018-08-24T01:04:46.097Z,22.90
2018-08-24T01:07:14.720Z,22.90
2018-08-24T01:09:43.401Z,22.80
2018-08-24T01:12:13.529Z,22.70
2018-08-24T01:14:44.670Z,22.60
2018-08-24T01:17:18.786Z,22.50
2018-08-24T01:19:47.778Z,22.40
2018-08-24T01:22:15.989Z,22.20
2018-08-24T01:24:43.945Z,21.90
2018-08-24T01:27:11.835Z,21.90
2018-08-24T01:29:41.596Z,21.80
2018-08-24T01:32:09.531Z,21.70
2018-08-24T01:34:37.951Z,21.50
2018-08-24T01:37:05.986Z,21.50
2018-08-24T01:39:34.093Z,21.50
2018-08-24T01:42:02.267Z,21.70
2018-08-24T01:44:30.423Z,21.80
2018-08-24T01:46:58.316Z,21.80
2018-08-24T01:49:26.989Z,21.90
2018-08-24T01:51:54.845Z,21.90
2018-08-24T01:54:23.050Z,21.80
2018-08-24T01:56:50.954Z,21.60
2018-08-24T01:59:18.791Z,21.60
2018-08-24T02:01:46.947Z,21.70
2018-08-24T02:04:15.793Z,21.70
2018-08-24T02:06:43.708Z,21.70
2018-08-24T02:09:12.817Z,21.70
2018-08-24T02:11:40.820Z,21.80
2018-08-24T02:14:15.627Z,21.70
2018-08-24T02:16:45.756Z,21.50
2018-08-24T02:19:16.536Z,21.40
2018-08-24T02:21:50.064Z,21.30
2018-08-24T02:24:18.644Z,21.40
2018-08-24T02:26:46.913Z,21.50
2018-08-24T02:29:15.501Z,21.50
2018-08-24T02:31:50.118Z,21.50
2018-08-24T02:34:17.999Z,21.40
2018-08-24T02:36:46.109Z,21.30
2018-08-24T02:39:15.244Z,21.20
2018-08-24T02:41:44.086Z,21.20
2018-08-24T02:44:12.268Z,21.10
2018-08-24T02:46:42.180Z,21.20
2018-08-24T02:49:11.124Z,21.20
2018-08-24T02:51:40.545Z,21.00
2018-08-24T02:54:09.079Z,20.90
2018-08-24T02:56:37.791Z,21.00
2018-08-24T02:59:06.472Z,21.00
2018-08-24T03:01:38.282Z,21.00
2018-08-24T03:04:08.999Z,20.80
2018-08-24T03:06:39.158Z,20.60
2018-08-24T03:09:10.900Z,20.50
2018-08-24T03:11:39.871Z,20.40
2018-08-24T03:14:11.343Z,20.30
2018-08-24T03:16:39.913Z,20.40
2018-08-24T03:19:10.036Z,20.40
2018-08-24T03:21:41.533Z,20.50
2018-08-24T03:24:10.901Z,20.30
2018-08-24T03:26:42.259Z,20.10
2018-08-24T03:29:11.512Z,20.00
2018-08-24T03:31:40.342Z,20.00
2018-08-24T03:34:09.831Z,19.90
2018-08-24T03:36:42.575Z,19.90
2018-08-24T03:39:11.812Z,19.90
2018-08-24T03:41:41.841Z,19.90
2018-08-24T03:44:12.803Z,19.90
2018-08-24T03:46:42.497Z,19.90
2018-08-24T03:49:11.263Z,19.90
2018-08-24T03:51:39.660Z,19.80
2018-08-24T03:54:14.298Z,19.90
2018-08-24T03:56:43.725Z,19.80
2018-08-24T03:59:12.936Z,19.80
2018-08-24T04:01:43.542Z,19.80
2018-08-24T04:04:11.570Z,19.80
2018-08-24T04:06:42.201Z,19.70
2018-08-24T04:09:12.624Z,19.70
2018-08-24T04:11:42.050Z,19.70
2018-08-24T04:14:11.960Z,19.70
2018-08-24T04:16:48.530Z,19.70
2018-08-24T04:19:33.400Z,19.70
2018-08-24T04:22:03.956Z,19.60
2018-08-24T04:24:40.341Z,19.50
2018-08-24T04:27:10.786Z,19.40
2018-08-24T04:29:41.140Z,19.40
2018-08-24T04:32:13.051Z,19.40
2018-08-24T04:34:42.642Z,19.40
2018-08-24T04:37:14.386Z,19.50
2018-08-24T04:39:44.791Z,19.50
2018-08-24T04:42:13.281Z,19.70
2018-08-24T04:44:45.522Z,19.70
2018-08-24T04:47:15.728Z,19.80
2018-08-24T04:49:45.350Z,19.70
2018-08-24T04:52:13.542Z,19.70
2018-08-24T04:54:43.060Z,19.70
2018-08-24T04:57:15.177Z,19.70
2018-08-24T04:59:46.297Z,19.70
2018-08-24T05:02:17.507Z,19.70
2018-08-24T05:04:46.668Z,19.70
2018-08-24T05:07:15.901Z,19.80
2018-08-24T05:09:46.204Z,19.90
2018-08-24T05:12:16.361Z,20.10
2018-08-24T05:14:48.281Z,20.30
2018-08-24T05:17:19.675Z,20.50
2018-08-24T05:19:49.462Z,20.40
2018-08-24T05:22:20.907Z,20.50
2018-08-24T05:24:49.895Z,20.40
2018-08-24T05:27:18.219Z,20.40
2018-08-24T05:29:48.900Z,20.40
2018-08-24T05:32:17.511Z,20.50
2018-08-24T05:34:47.291Z,20.60
2018-08-24T05:37:16.924Z,20.70
2018-08-24T05:39:47.751Z,20.60
2018-08-24T05:42:15.675Z,20.50
2018-08-24T05:44:43.568Z,20.40
2018-08-24T05:47:11.945Z,20.40
2018-08-24T05:49:39.841Z,20.30
2018-08-24T05:52:07.738Z,20.40
2018-08-24T05:54:35.636Z,20.50
2018-08-24T05:57:03.516Z,20.50
2018-08-24T05:59:31.462Z,20.50
2018-08-24T06:02:00.401Z,20.50
2018-08-24T06:04:29.428Z,20.50
2018-08-24T06:06:59.527Z,20.40
2018-08-24T06:09:27.884Z,20.30
2018-08-24T06:11:58.405Z,20.30
2018-08-24T06:14:27.390Z,20.30
2018-08-24T06:17:03.782Z,20.40
2018-08-24T06:19:34.064Z,20.40
2018-08-24T06:22:03.155Z,20.50
2018-08-24T06:24:33.482Z,20.60
2018-08-24T06:27:02.690Z,20.60
2018-08-24T06:29:32.628Z,20.70
2018-08-24T06:32:01.544Z,20.70
2018-08-24T06:34:29.786Z,20.70
2018-08-24T06:36:57.953Z,20.80
2018-08-24T06:39:25.892Z,20.90
2018-08-24T06:41:53.854Z,20.90
2018-08-24T06:44:21.785Z,20.90
2018-08-24T06:46:49.662Z,21.00
2018-08-24T06:49:17.545Z,21.00
2018-08-24T06:51:45.788Z,21.00
2018-08-24T06:54:13.707Z,21.00
2018-08-24T06:56:41.934Z,21.00
2018-08-24T06:59:10.885Z,21.10
2018-08-24T07:01:39.707Z,21.20
2018-08-24T07:04:07.622Z,21.30
2018-08-24T07:06:36.767Z,21.30
2018-08-24T07:09:06.183Z,21.40
2018-08-24T07:11:35.352Z,21.50
2018-08-24T07:14:03.663Z,21.50
2018-08-24T07:16:31.594Z,21.50
2018-08-24T07:19:00.761Z,21.50
2018-08-24T07:21:29.330Z,21.60
2018-08-24T07:23:58.277Z,21.70
2018-08-24T07:26:26.908Z,21.70
2018-08-24T07:28:55.669Z,21.80
2018-08-24T07:31:24.160Z,21.90
2018-08-24T07:33:52.195Z,22.00
2018-08-24T07:36:21.256Z,22.20
2018-08-24T07:38:49.897Z,22.30
2018-08-24T07:41:17.894Z,22.40
2018-08-24T07:43:45.807Z,22.60
2018-08-24T07:46:14.128Z,22.70
2018-08-24T07:48:42.127Z,22.80
2018-08-24T07:51:10.268Z,22.80
2018-08-24T07:53:38.803Z,22.80
2018-08-24T07:56:07.305Z,22.80
2018-08-24T07:58:35.381Z,22.90
2018-08-24T08:01:03.568Z,22.90
2018-08-24T08:03:31.486Z,23.00
2018-08-24T08:05:59.737Z,23.10
2018-08-24T08:08:27.721Z,23.10
2018-08-24T08:10:55.641Z,23.20
2018-08-24T08:13:23.561Z,23.30
2018-08-24T08:15:54.234Z,23.50
2018-08-24T08:18:23.401Z,23.70
2018-08-24T08:20:51.206Z,23.70
2018-08-24T08:23:20.006Z,23.60
2018-08-24T08:25:48.138Z,23.50
2018-08-24T08:28:16.539Z,23.50
2018-08-24T08:30:44.435Z,23.60
2018-08-24T08:33:12.371Z,23.70
2018-08-24T08:35:40.310Z,23.70
2018-08-24T08:38:08.257Z,23.70
2018-08-24T08:40:36.757Z,23.70
2018-08-24T08:43:04.742Z,23.70
2018-08-24T08:45:32.675Z,23.80
2018-08-24T08:48:01.247Z,23.70
2018-08-24T08:50:29.396Z,23.70
2018-08-24T08:52:57.318Z,23.50
2018-08-24T08:55:25.488Z,23.40
2018-08-24T08:57:53.485Z,23.30
2018-08-24T09:00:22.682Z,23.30
2018-08-24T09:02:52.123Z,23.20
2018-08-24T09:05:20.153Z,23.10
2018-08-24T09:07:48.044Z,23.10
2018-08-24T09:10:15.968Z,23.10
2018-08-24T09:12:43.923Z,22.90
2018-08-24T09:15:11.886Z,22.90
2018-08-24T09:17:47.755Z,23.00
2018-08-24T09:20:22.631Z,23.10
2018-08-24T09:22:56.236Z,23.00
2018-08-24T09:25:30.634Z,22.90
2018-08-24T09:28:04.486Z,22.90
2018-08-24T09:30:36.831Z,22.90
2018-08-24T09:33:05.152Z,23.00
2018-08-24T09:35:34.086Z,23.20
2018-08-24T09:38:02.022Z,23.20
2018-08-24T09:40:35.495Z,23.20
2018-08-24T09:43:09.193Z,23.30
2018-08-24T09:45:37.880Z,23.30
2018-08-24T09:49:15.459Z,23.20
2018-08-24T09:51:44.161Z,23.10
2018-08-24T09:54:12.068Z,23.20
2018-08-24T09:56:40.343Z,23.10
2018-08-24T09:59:09.053Z,23.20
2018-08-24T10:01:43.796Z,23.30
2018-08-24T10:04:17.536Z,23.40
2018-08-24T10:06:51.220Z,23.50
2018-08-24T10:09:19.760Z,23.50
2018-08-24T10:11:48.678Z,23.70
2018-08-24T10:14:17.119Z,23.80
2018-08-24T10:16:47.420Z,24.10
2018-08-24T10:19:15.677Z,24.20
2018-08-24T10:21:43.623Z,24.20
2018-08-24T10:24:11.743Z,24.30
2018-08-24T10:26:40.119Z,24.30
2018-08-24T10:29:08.455Z,24.30
2018-08-24T10:31:37.596Z,24.50
2018-08-24T10:34:05.775Z,24.70
2018-08-24T10:36:33.920Z,24.90
2018-08-24T10:39:02.219Z,24.90
2018-08-24T10:41:30.970Z,25.20
2018-08-24T10:43:58.849Z,25.40
2018-08-24T10:46:26.810Z,25.70
2018-08-24T10:48:54.732Z,25.70
2018-08-24T10:51:22.727Z,25.80
2018-08-24T10:53:50.643Z,25.90
2018-08-24T10:56:19.478Z,25.90
2018-08-24T10:58:47.392Z,26.00
2018-08-24T11:01:15.435Z,26.20
2018-08-24T11:03:43.611Z,26.30
2018-08-24T11:06:12.175Z,26.50
2018-08-24T11:08:40.711Z,26.70
2018-08-24T11:11:08.641Z,26.90
2018-08-24T11:13:36.540Z,26.70
2018-08-24T11:16:04.785Z,26.80
2018-08-24T11:18:32.815Z,26.90
2018-08-24T11:21:00.975Z,27.00
2018-08-24T11:23:29.127Z,27.00
2018-08-24T11:25:57.085Z,27.00
2018-08-24T11:28:25.378Z,27.00
2018-08-24T11:30:53.980Z,26.90
2018-08-24T11:33:21.939Z,27.10
2018-08-24T11:35:50.634Z,27.30
2018-08-24T11:38:18.584Z,27.50
2018-08-24T11:40:46.553Z,27.50
2018-08-24T11:43:14.534Z,27.50
2018-08-24T11:45:49.008Z,27.50
2018-08-24T11:48:16.894Z,27.60
2018-08-24T11:50:44.826Z,27.60
2018-08-24T11:53:13.087Z,27.80
2018-08-24T11:55:41.191Z,27.80
2018-08-24T11:58:09.427Z,27.70
2018-08-24T12:00:38.084Z,27.70
2018-08-24T12:03:06.297Z,27.90
2018-08-24T12:05:34.247Z,28.00
2018-08-24T12:08:02.318Z,28.30
2018-08-24T12:10:30.591Z,28.40
2018-08-24T12:12:59.071Z,28.70
2018-08-24T12:15:27.019Z,28.80
2018-08-24T12:17:55.591Z,28.50
2018-08-24T12:20:24.196Z,28.10
2018-08-24T12:22:52.764Z,27.90
2018-08-24T12:25:20.753Z,27.70
2018-08-24T12:27:48.653Z,27.60
2018-08-24T12:30:16.554Z,27.50
2018-08-24T12:32:44.494Z,27.30
2018-08-24T12:35:14.134Z,27.00
2018-08-24T12:37:43.486Z,26.00
2018-08-24T12:40:11.770Z,25.10
2018-08-24T12:42:39.830Z,24.40
2018-08-24T12:45:07.813Z,23.70
2018-08-24T12:47:36.487Z,23.10
2018-08-24T12:50:04.971Z,22.60
2018-08-24T12:52:33.707Z,21.90
2018-08-24T12:55:01.652Z,21.20
2018-08-24T12:57:30.620Z,20.70
2018-08-24T13:00:00.140Z,20.40
2018-08-24T13:02:28.255Z,20.20
2018-08-24T13:04:57.099Z,20.10
2018-08-24T13:07:25.612Z,20.10
2018-08-24T13:09:53.863Z,20.30
2018-08-24T13:12:21.756Z,20.40
2018-08-24T13:14:50.407Z,20.30
2018-08-24T13:17:18.917Z,20.50
2018-08-24T13:19:46.851Z,20.50
2018-08-24T13:22:14.785Z,20.40
2018-08-24T13:24:43.626Z,20.50
2018-08-24T13:27:11.544Z,20.60
2018-08-24T13:29:39.456Z,20.60
2018-08-24T13:32:07.427Z,20.80
2018-08-24T13:34:36.936Z,20.80
2018-08-24T13:37:05.559Z,20.90
2018-08-24T13:39:34.234Z,21.00
2018-08-24T13:42:03.405Z,21.10
2018-08-24T13:44:32.083Z,21.20
2018-08-24T13:47:00.008Z,21.40
2018-08-24T13:49:28.018Z,21.70
2018-08-24T13:51:56.637Z,21.80
2018-08-24T13:54:25.887Z,22.00
2018-08-24T13:56:53.856Z,22.20
2018-08-24T13:59:21.801Z,22.30
2018-08-24T14:01:49.830Z,22.40
2018-08-24T14:04:18.383Z,22.30
2018-08-24T14:06:48.073Z,22.40
2018-08-24T14:09:16.136Z,22.50
2018-08-24T14:11:44.574Z,22.50
2018-08-24T14:14:12.573Z,22.60
2018-08-24T14:16:40.514Z,22.60
2018-08-24T14:19:08.459Z,22.60
2018-08-24T14:21:36.793Z,22.50
2018-08-24T14:24:05.592Z,22.60
2018-08-24T14:26:33.674Z,22.70
2018-08-24T14:29:02.695Z,22.80
2018-08-24T14:31:31.523Z,22.90
2018-08-24T14:33:59.568Z,22.80
2018-08-24T14:36:28.605Z,22.90
2018-08-24T14:38:57.258Z,23.00
2018-08-24T14:41:25.143Z,23.00
2018-08-24T14:43:53.111Z,23.00
2018-08-24T14:46:21.233Z,23.00
2018-08-24T14:48:49.194Z,23.00
2018-08-24T14:51:17.368Z,23.10
2018-08-24T14:53:45.291Z,23.30
2018-08-24T14:56:13.240Z,23.30
2018-08-24T14:58:41.162Z,23.30
2018-08-24T15:01:09.110Z,23.40
2018-08-24T15:03:37.338Z,23.40
2018-08-24T15:06:05.312Z,23.30
2018-08-24T15:08:33.816Z,23.40
2018-08-24T15:11:02.081Z,23.40
2018-08-24T15:13:32.091Z,23.50
2018-08-24T15:16:00.059Z,23.60
2018-08-24T15:18:28.004Z,23.60
2018-08-24T15:20:55.931Z,23.50
2018-08-24T15:23:24.348Z,23.60
2018-08-24T15:25:53.607Z,23.60
2018-08-24T15:28:21.940Z,23.50
2018-08-24T15:30:50.212Z,23.50
2018-08-24T15:33:18.114Z,23.50
2018-08-24T15:35:46.059Z,23.50
2018-08-24T15:38:14.660Z,23.50
2018-08-24T15:40:43.190Z,23.60
2018-08-24T15:43:11.759Z,23.60
2018-08-24T15:45:39.875Z,23.60
2018-08-24T15:48:08.550Z,23.60
2018-08-24T15:50:37.392Z,23.70
2018-08-24T15:53:05.599Z,23.70
2018-08-24T15:55:34.044Z,23.70
2018-08-24T15:58:02.492Z,23.70
2018-08-24T16:00:30.470Z,23.70
2018-08-24T16:02:58.389Z,23.70
2018-08-24T16:05:27.544Z,23.70
2018-08-24T16:07:55.463Z,23.70
2018-08-24T16:10:24.061Z,23.70
2018-08-24T16:12:52.576Z,23.60
2018-08-24T16:15:21.247Z,23.60
2018-08-24T16:17:55.214Z,23.60
2018-08-24T16:20:23.437Z,23.50
2018-08-24T16:22:51.384Z,23.40
2018-08-24T16:25:20.079Z,23.40
2018-08-24T16:27:48.852Z,23.40
2018-08-24T16:30:17.268Z,23.40
2018-08-24T16:32:45.294Z,23.40
2018-08-24T16:35:13.101Z,23.40
2018-08-24T16:37:41.110Z,23.50
2018-08-24T16:40:09.263Z,23.50
2018-08-24T16:42:37.931Z,23.50
2018-08-24T16:45:06.568Z,23.70
2018-08-24T16:47:35.067Z,23.70
2018-08-24T16:50:03.017Z,23.70
2018-08-24T16:52:31.767Z,23.60
2018-08-24T16:54:59.655Z,23.60
2018-08-24T16:57:27.767Z,23.60
2018-08-24T16:59:55.682Z,23.50
2018-08-24T17:02:23.607Z,23.50
2018-08-24T17:04:52.680Z,23.50
2018-08-24T17:07:20.681Z,23.40
2018-08-24T17:09:48.922Z,23.30
2018-08-24T17:12:17.798Z,23.30
2018-08-24T17:14:46.038Z,23.20
2018-08-24T17:17:14.033Z,23.20
2018-08-24T17:19:41.966Z,23.20
2018-08-24T17:22:10.605Z,23.20
2018-08-24T17:24:39.532Z,23.10
2018-08-24T17:27:08.349Z,23.10
2018-08-24T17:29:36.380Z,23.00
2018-08-24T17:32:04.595Z,22.90
2018-08-24T17:34:33.964Z,22.90
2018-08-24T17:37:02.521Z,22.80
2018-08-24T17:39:30.433Z,22.80
2018-08-24T17:41:58.958Z,22.80
2018-08-24T17:44:26.880Z,22.80
2018-08-24T17:46:55.157Z,22.80
2018-08-24T17:49:23.191Z,22.80
2018-08-24T17:51:52.074Z,22.80
2018-08-24T17:54:20.054Z,22.80
2018-08-24T17:56:47.938Z,22.80
2018-08-24T17:59:15.824Z,22.80
2018-08-24T18:01:43.732Z,22.70
2018-08-24T18:04:11.668Z,22.70
2018-08-24T18:06:39.595Z,22.70
2018-08-24T18:09:09.210Z,22.70
2018-08-24T18:11:37.527Z,22.80
2018-08-24T18:14:05.689Z,22.70
2018-08-24T18:16:33.968Z,22.70
2018-08-24T18:19:01.927Z,22.70
2018-08-24T18:21:29.856Z,22.60
2018-08-24T18:23:57.966Z,22.70
2018-08-24T18:26:25.847Z,22.60
2018-08-24T18:28:54.065Z,22.50
2018-08-24T18:31:22.284Z,22.50
2018-08-24T18:33:51.612Z,22.60
2018-08-24T18:36:19.780Z,22.60
2018-08-24T18:38:47.691Z,22.50
2018-08-24T18:41:15.649Z,22.60
2018-08-24T18:43:43.573Z,22.50
2018-08-24T18:46:12.262Z,22.40
2018-08-24T18:48:40.278Z,22.40
2018-08-24T18:51:08.188Z,22.40
2018-08-24T18:53:36.101Z,22.50
2018-08-24T18:56:05.117Z,22.40
2018-08-24T18:58:33.055Z,22.40
2018-08-24T19:01:02.309Z,22.40
2018-08-24T19:03:31.232Z,22.30
2018-08-24T19:05:59.185Z,22.30
2018-08-24T19:08:27.122Z,22.20
2018-08-24T19:11:00.987Z,22.30
2018-08-24T19:13:29.682Z,22.30
2018-08-24T19:15:57.566Z,22.30
2018-08-24T19:18:31.511Z,22.30
2018-08-24T19:21:06.076Z,22.30
2018-08-24T19:23:34.090Z,22.00
2018-08-24T19:26:04.408Z,22.00
2018-08-24T19:28:38.213Z,22.00
2018-08-24T19:31:06.200Z,22.00
2018-08-24T19:33:34.130Z,22.10
2018-08-24T19:36:02.757Z,22.00
2018-08-24T19:38:31.272Z,22.00
2018-08-24T19:41:06.527Z,22.00
2018-08-24T19:43:35.064Z,22.00
2018-08-24T19:46:02.969Z,22.00
2018-08-24T19:48:36.576Z,22.10
2018-08-24T19:51:04.860Z,22.10
2018-08-24T19:53:33.539Z,22.00
2018-08-24T19:56:02.001Z,21.90
2018-08-24T19:58:35.652Z,21.90
2018-08-24T20:01:03.663Z,22.00
2018-08-24T20:03:31.969Z,21.90
2018-08-24T20:06:05.492Z,21.90
2018-08-24T20:08:40.022Z,21.90
2018-08-24T20:11:08.683Z,22.00
2018-08-24T20:13:37.286Z,21.90
2018-08-24T20:16:10.828Z,21.80
2018-08-24T20:18:38.800Z,21.70
2018-08-24T20:21:07.258Z,21.70
2018-08-24T20:23:35.314Z,21.60
2018-08-24T20:26:03.272Z,21.70
2018-08-24T20:28:31.210Z,21.60
2018-08-24T20:30:59.154Z,21.50
2018-08-24T20:33:27.155Z,21.60
2018-08-24T20:35:55.904Z,21.70
2018-08-24T20:38:24.545Z,21.60
2018-08-24T20:40:52.668Z,21.60
2018-08-24T20:43:20.572Z,21.60
2018-08-24T20:45:48.499Z,21.50
2018-08-24T20:48:16.410Z,21.50
2018-08-24T20:50:44.539Z,21.50
2018-08-24T20:53:12.716Z,21.60
2018-08-24T20:55:40.742Z,21.50
2018-08-24T20:58:09.216Z,21.40
2018-08-24T21:00:37.120Z,21.40
2018-08-24T21:03:05.323Z,21.40
2018-08-24T21:05:33.186Z,21.50
2018-08-24T21:08:01.066Z,21.40
2018-08-24T21:10:29.012Z,21.30
2018-08-24T21:12:57.575Z,21.30
2018-08-24T21:15:25.896Z,21.20
2018-08-24T21:17:54.495Z,21.20
2018-08-24T21:20:23.673Z,21.20
2018-08-24T21:22:51.576Z,21.30
2018-08-24T21:25:19.489Z,21.30
2018-08-24T21:27:48.060Z,21.20
2018-08-24T21:30:15.991Z,21.30
2018-08-24T21:32:44.006Z,21.30
2018-08-24T21:35:11.929Z,21.40
2018-08-24T21:37:40.428Z,21.40
2018-08-24T21:40:09.347Z,21.30
2018-08-24T21:42:37.264Z,21.30
2018-08-24T21:45:05.589Z,21.30
2018-08-24T21:47:33.516Z,21.30
2018-08-24T21:50:01.644Z,21.30
2018-08-24T21:52:30.717Z,21.30
2018-08-24T21:54:59.912Z,21.30
2018-08-24T21:57:27.824Z,21.20
2018-08-24T21:59:55.749Z,21.20
2018-08-24T22:02:23.860Z,21.20
2018-08-24T22:04:53.643Z,21.20
2018-08-24T22:07:21.810Z,21.30
2018-08-24T22:09:50.238Z,21.20
2018-08-24T22:12:18.153Z,21.10
2018-08-24T22:14:46.192Z,21.10
2018-08-24T22:17:14.081Z,21.10
2018-08-24T22:19:41.997Z,21.10
2018-08-24T22:22:10.050Z,21.10
2018-08-24T22:24:37.980Z,21.10
2018-08-24T22:27:05.923Z,21.00
2018-08-24T22:29:33.808Z,21.00
2018-08-24T22:32:02.364Z,21.00
2018-08-24T22:34:30.913Z,21.00
2018-08-24T22:36:58.840Z,21.00
2018-08-24T22:39:26.763Z,20.90
2018-08-24T22:41:55.865Z,21.00
2018-08-24T22:44:24.443Z,21.00
2018-08-24T22:46:53.142Z,21.00
2018-08-24T22:49:21.747Z,21.00
2018-08-24T22:51:49.654Z,20.90
2018-08-24T22:54:17.537Z,20.90
2018-08-24T22:56:45.498Z,20.90
2018-08-24T22:59:14.049Z,20.90
2018-08-24T23:01:42.430Z,20.90
2018-08-24T23:04:10.305Z,20.80
2018-08-24T23:06:38.657Z,20.70
2018-08-24T23:09:09.364Z,20.70
2018-08-24T23:11:37.212Z,20.50
2018-08-24T23:14:05.372Z,20.40
2018-08-24T23:16:33.281Z,20.40
2018-08-24T23:19:01.150Z,20.40
2018-08-24T23:21:29.039Z,20.40
2018-08-24T23:23:57.620Z,20.40
2018-08-24T23:26:26.512Z,20.30
2018-08-24T23:28:55.515Z,20.30
2018-08-24T23:31:24.225Z,20.30
2018-08-24T23:33:52.103Z,20.30
2018-08-24T23:36:20.100Z,20.20
2018-08-24T23:38:48.611Z,20.10
2018-08-24T23:41:17.040Z,20.10
2018-08-24T23:43:44.937Z,20.10
2018-08-24T23:46:13.512Z,20.10
2018-08-24T23:48:41.426Z,20.10
2018-08-24T23:51:09.331Z,20.10
2018-08-24T23:53:37.224Z,20.10
2018-08-24T23:56:05.891Z,20.10
2018-08-24T23:58:33.831Z,20.20
